createdAt,value
2023-03-15T00:00:10.533Z,36.04
2023-03-15T00:02:56.227Z,36.34
2023-03-15T00:05:43.581Z,36.48
2023-03-15T00:08:33.197Z,36.30
2023-03-15T00:11:19.048Z,36.11
2023-03-15T00:14:40.780Z,37.90
2023-03-15T00:17:26.712Z,36.59
2023-03-15T00:20:14.981Z,36.73
2023-03-15T00:23:00.671Z,36.57
2023-03-15T00:25:48.222Z,36.82
2023-03-15T00:28:34.071Z,36.33
2023-03-15T00:31:23.233Z,36.86
2023-03-15T00:34:09.524Z,37.07
2023-03-15T00:36:55.231Z,36.94
2023-03-15T00:39:41.340Z,36.83
2023-03-15T00:42:28.719Z,37.11
2023-03-15T00:45:14.543Z,36.92
2023-03-15T00:48:00.523Z,37.04
2023-03-15T00:50:46.602Z,36.71
2023-03-15T00:53:33.511Z,37.00
2023-03-15T00:56:22.235Z,37.07
2023-03-15T00:59:08.739Z,36.61
2023-03-15T01:01:54.436Z,37.54
2023-03-15T01:04:41.698Z,37.44
2023-03-15T01:07:27.576Z,37.18
2023-03-15T01:10:14.503Z,37.61
2023-03-15T01:13:00.610Z,37.94
2023-03-15T01:15:47.816Z,37.70
2023-03-15T01:18:33.848Z,37.39
2023-03-15T01:21:20.671Z,37.95
2023-03-15T01:24:07.596Z,37.73
2023-03-15T01:26:53.289Z,37.75
2023-03-15T01:29:39.057Z,37.72
2023-03-15T01:32:27.098Z,38.14
2023-03-15T01:35:13.279Z,38.09
2023-03-15T01:37:59.570Z,38.02
2023-03-15T01:40:46.363Z,38.32
2023-03-15T01:43:33.782Z,38.00
2023-03-15T01:46:20.156Z,37.77
2023-03-15T01:49:23.525Z,38.74
2023-03-15T01:52:33.047Z,39.14
2023-03-15T01:55:21.989Z,38.26
2023-03-15T01:58:24.820Z,38.43
2023-03-15T02:01:11.582Z,38.61
2023-03-15T02:04:09.153Z,38.96
2023-03-15T02:07:01.830Z,39.02
2023-03-15T02:10:13.678Z,40.06
2023-03-15T02:13:07.672Z,38.68
2023-03-15T02:15:53.724Z,38.98
2023-03-15T02:18:55.042Z,38.80
2023-03-15T02:22:24.240Z,39.91
2023-03-15T02:25:29.156Z,39.69
2023-03-15T02:28:15.289Z,40.99
2023-03-15T02:31:01.784Z,39.16
2023-03-15T02:33:53.267Z,39.12
2023-03-15T02:36:41.718Z,39.42
2023-03-15T02:39:28.478Z,39.06
2023-03-15T02:42:14.612Z,39.35
2023-03-15T02:45:00.659Z,39.24
2023-03-15T02:47:49.915Z,39.86
2023-03-15T02:50:36.186Z,39.66
2023-03-15T02:53:22.201Z,39.13
2023-03-15T02:56:08.092Z,39.90
2023-03-15T02:58:53.973Z,39.56
2023-03-15T03:01:40.265Z,39.31
2023-03-15T03:04:26.081Z,40.03
2023-03-15T03:07:11.822Z,39.33
2023-03-15T03:10:06.654Z,39.70
2023-03-15T03:13:02.004Z,39.58
2023-03-15T03:15:58.772Z,39.73
2023-03-15T03:18:47.561Z,41.64
2023-03-15T03:21:33.452Z,39.77
2023-03-15T03:24:19.957Z,40.12
2023-03-15T03:27:06.513Z,39.89
2023-03-15T03:29:56.344Z,40.26
2023-03-15T03:32:42.497Z,40.11
2023-03-15T03:35:29.117Z,39.76
2023-03-15T03:38:14.999Z,40.45
2023-03-15T03:41:05.171Z,40.31
2023-03-15T03:43:52.173Z,40.76
2023-03-15T03:46:39.158Z,40.60
2023-03-15T03:49:24.919Z,40.49
2023-03-15T03:52:10.658Z,40.83
2023-03-15T03:54:56.455Z,41.19
2023-03-15T03:57:42.916Z,41.34
2023-03-15T04:00:33.573Z,41.86
2023-03-15T04:03:19.360Z,41.48
2023-03-15T04:06:08.164Z,41.33
2023-03-15T04:08:58.344Z,41.36
2023-03-15T04:11:51.790Z,41.48
2023-03-15T04:14:37.943Z,42.19
2023-03-15T04:17:26.746Z,41.49
2023-03-15T04:20:13.109Z,42.34
2023-03-15T04:23:03.089Z,42.21
2023-03-15T04:26:15.214Z,42.51
2023-03-15T04:29:15.654Z,42.75
2023-03-15T04:32:17.657Z,43.21
2023-03-15T04:35:35.315Z,42.26
2023-03-15T04:38:41.448Z,42.71
2023-03-15T04:41:28.064Z,43.20
2023-03-15T04:44:40.873Z,43.19
2023-03-15T04:47:47.122Z,43.60
2023-03-15T04:50:51.088Z,43.01
2023-03-15T04:53:53.589Z,43.12
2023-03-15T04:56:59.549Z,43.58
2023-03-15T05:00:18.490Z,44.16
2023-03-15T05:03:23.482Z,44.20
2023-03-15T05:06:31.858Z,43.97
2023-03-15T05:09:46.814Z,44.13
2023-03-15T05:12:53.022Z,44.42
2023-03-15T05:15:56.161Z,44.11
2023-03-15T05:19:05.059Z,44.13
2023-03-15T05:21:58.674Z,44.48
2023-03-15T05:25:01.294Z,44.91
2023-03-15T05:27:59.371Z,44.31
2023-03-15T05:31:05.420Z,44.93
2023-03-15T05:34:12.255Z,44.81
2023-03-15T05:37:22.717Z,44.27
2023-03-15T05:40:30.157Z,44.94
2023-03-15T05:43:24.851Z,45.51
2023-03-15T05:46:25.207Z,45.16
2023-03-15T05:49:28.207Z,45.85
2023-03-15T05:52:36.572Z,45.15
2023-03-15T05:55:40.057Z,45.82
2023-03-15T05:58:44.066Z,49.00
2023-03-15T06:01:59.848Z,45.81
2023-03-15T06:04:53.136Z,45.71
2023-03-15T06:07:42.923Z,45.69
2023-03-15T06:10:28.946Z,45.13
2023-03-15T06:13:18.404Z,45.67
2023-03-15T06:16:05.509Z,45.53
2023-03-15T06:18:53.851Z,45.43
2023-03-15T06:21:39.946Z,45.70
2023-03-15T06:24:31.740Z,46.14
2023-03-15T06:27:22.414Z,46.06
2023-03-15T06:30:15.901Z,45.55
2023-03-15T06:33:03.605Z,45.76
2023-03-15T06:35:50.719Z,46.51
2023-03-15T06:38:36.782Z,45.59
2023-03-15T06:41:22.560Z,45.82
2023-03-15T06:44:13.299Z,45.96
2023-03-15T06:47:00.120Z,46.37
2023-03-15T06:49:50.429Z,46.46
2023-03-15T06:52:39.642Z,46.22
2023-03-15T06:55:26.006Z,46.46
2023-03-15T06:58:12.705Z,46.26
2023-03-15T07:00:59.069Z,46.22
2023-03-15T07:03:45.027Z,46.29
2023-03-15T07:06:30.942Z,46.14
2023-03-15T07:09:16.821Z,46.67
2023-03-15T07:12:02.495Z,46.24
2023-03-15T07:14:49.570Z,46.22
2023-03-15T07:17:35.517Z,46.60
2023-03-15T07:20:21.303Z,46.56
2023-03-15T07:23:07.000Z,46.43
2023-03-15T07:25:55.490Z,46.69
2023-03-15T07:28:43.651Z,46.38
2023-03-15T07:31:29.133Z,47.07
2023-03-15T07:34:14.750Z,46.49
2023-03-15T07:37:00.708Z,46.86
2023-03-15T07:39:48.451Z,46.73
2023-03-15T07:42:34.222Z,46.50
2023-03-15T07:45:20.785Z,47.17
2023-03-15T07:48:06.716Z,47.53
2023-03-15T07:50:55.235Z,46.87
2023-03-15T07:53:42.184Z,47.09
2023-03-15T07:56:27.979Z,46.73
2023-03-15T07:59:13.784Z,47.13
2023-03-15T08:02:01.599Z,47.14
2023-03-15T08:04:50.977Z,47.39
2023-03-15T08:07:37.543Z,46.98
2023-03-15T08:10:23.593Z,47.36
2023-03-15T08:13:09.497Z,47.26
2023-03-15T08:15:55.303Z,47.54
2023-03-15T08:18:41.069Z,47.86
2023-03-15T08:21:26.705Z,47.53
2023-03-15T08:24:13.015Z,47.59
2023-03-15T08:26:58.730Z,47.33
2023-03-15T08:29:44.793Z,47.64
2023-03-15T08:32:30.875Z,47.59
2023-03-15T08:35:17.707Z,47.22
2023-03-15T08:38:03.613Z,47.58
2023-03-15T08:40:49.426Z,47.96
2023-03-15T08:43:35.261Z,47.30
2023-03-15T08:46:22.207Z,47.76
2023-03-15T08:49:08.174Z,47.78
2023-03-15T08:51:53.882Z,47.55
2023-03-15T08:54:40.560Z,48.31
2023-03-15T08:57:26.599Z,47.96
2023-03-15T09:00:23.252Z,48.32
2023-03-15T09:03:08.953Z,48.02
2023-03-15T09:05:58.783Z,48.46
2023-03-15T09:08:44.685Z,47.87
2023-03-15T09:11:30.516Z,48.19
2023-03-15T09:14:16.718Z,47.92
2023-03-15T09:17:03.291Z,48.25
2023-03-15T09:19:49.202Z,48.59
2023-03-15T09:22:39.535Z,48.49
2023-03-15T09:25:26.169Z,48.34
2023-03-15T09:28:12.436Z,48.75
2023-03-15T09:31:00.032Z,48.30
2023-03-15T09:33:46.680Z,48.70
2023-03-15T09:36:33.353Z,49.12
2023-03-15T09:39:22.023Z,48.51
2023-03-15T09:42:20.005Z,49.42
2023-03-15T09:45:26.733Z,48.74
2023-03-15T09:48:21.730Z,49.29
2023-03-15T09:51:13.544Z,49.09
2023-03-15T09:54:03.569Z,48.39
2023-03-15T09:56:55.352Z,49.06
2023-03-15T09:59:44.056Z,48.72
2023-03-15T10:02:31.196Z,48.97
2023-03-15T10:05:21.436Z,49.22
2023-03-15T10:08:17.702Z,49.00
2023-03-15T10:11:38.624Z,49.92
2023-03-15T10:14:57.709Z,49.36
2023-03-15T10:18:05.173Z,49.61
2023-03-15T10:20:56.866Z,49.15
2023-03-15T10:23:49.822Z,49.06
2023-03-15T10:26:37.556Z,49.43
2023-03-15T10:29:25.739Z,49.02
2023-03-15T10:32:20.712Z,49.80
2023-03-15T10:35:15.172Z,49.43
2023-03-15T10:38:02.770Z,49.24
2023-03-15T10:40:53.650Z,49.63
2023-03-15T10:43:41.839Z,49.13
2023-03-15T10:46:28.122Z,49.09
2023-03-15T10:49:17.228Z,49.63
2023-03-15T10:52:03.992Z,49.06
2023-03-15T10:54:55.380Z,48.99
2023-03-15T10:57:55.418Z,48.99
2023-03-15T11:00:49.806Z,49.30
2023-03-15T11:03:37.234Z,49.40
2023-03-15T11:06:28.801Z,49.35
2023-03-15T11:09:17.693Z,49.62
2023-03-15T11:12:06.408Z,49.74
2023-03-15T11:15:00.777Z,49.72
2023-03-15T11:17:57.735Z,49.58
2023-03-15T11:20:45.961Z,49.37
2023-03-15T11:23:38.458Z,49.55
2023-03-15T11:26:32.596Z,50.09
2023-03-15T11:29:28.456Z,52.28
2023-03-15T11:32:23.313Z,52.16
2023-03-15T11:35:23.065Z,50.49
2023-03-15T11:38:15.950Z,50.76
2023-03-15T11:41:09.977Z,50.95
2023-03-15T11:44:39.182Z,54.35
2023-03-15T11:47:31.607Z,51.17
2023-03-15T11:50:21.063Z,51.31
2023-03-15T11:53:07.190Z,51.40
2023-03-15T11:55:54.804Z,51.45
2023-03-15T11:58:45.122Z,51.70
2023-03-15T12:01:31.168Z,51.66
2023-03-15T12:04:40.278Z,53.20
2023-03-15T12:07:35.144Z,51.97
2023-03-15T12:10:32.228Z,52.83
2023-03-15T12:13:30.320Z,52.32
2023-03-15T12:16:16.251Z,52.00
2023-03-15T12:19:10.714Z,52.06
2023-03-15T12:21:58.210Z,52.06
2023-03-15T12:24:45.739Z,52.57
2023-03-15T12:27:34.662Z,52.52
2023-03-15T12:30:24.757Z,52.58
2023-03-15T12:33:23.656Z,52.38
2023-03-15T12:36:17.034Z,52.54
2023-03-15T12:39:22.238Z,53.50
2023-03-15T12:42:13.784Z,54.10
2023-03-15T12:45:18.127Z,56.03
2023-03-15T12:48:06.586Z,52.36
2023-03-15T12:51:04.073Z,52.68
2023-03-15T12:53:50.801Z,52.64
2023-03-15T12:56:54.463Z,52.80
2023-03-15T12:59:56.436Z,53.48
2023-03-15T13:02:55.048Z,54.14
2023-03-15T13:05:45.241Z,53.60
2023-03-15T13:09:01.232Z,53.80
2023-03-15T13:11:49.877Z,52.56
2023-03-15T13:14:38.506Z,52.89
2023-03-15T13:17:27.802Z,52.46
2023-03-15T13:20:23.795Z,52.94
2023-03-15T13:23:26.577Z,53.33
2023-03-15T13:26:21.457Z,53.59
2023-03-15T13:29:07.376Z,52.65
2023-03-15T13:32:18.510Z,55.57
2023-03-15T13:35:11.481Z,53.13
2023-03-15T13:38:07.889Z,53.50
2023-03-15T13:40:55.500Z,52.75
2023-03-15T13:43:42.453Z,52.72
2023-03-15T13:46:30.894Z,52.87
2023-03-15T13:49:17.596Z,53.00
2023-03-15T13:52:06.832Z,53.31
2023-03-15T13:54:55.076Z,53.46
2023-03-15T13:57:41.011Z,53.29
2023-03-15T14:00:33.850Z,53.56
2023-03-15T14:03:24.079Z,53.42
2023-03-15T14:06:13.852Z,53.22
2023-03-15T14:09:12.244Z,53.88
2023-03-15T14:12:03.637Z,53.46
2023-03-15T14:14:52.439Z,53.85
2023-03-15T14:17:38.305Z,53.59
2023-03-15T14:20:30.112Z,53.63
2023-03-15T14:23:18.460Z,54.16
2023-03-15T14:26:10.323Z,53.84
2023-03-15T14:29:02.202Z,53.97
2023-03-15T14:31:52.056Z,53.40
2023-03-15T14:34:45.753Z,54.06
2023-03-15T14:37:31.845Z,55.74
2023-03-15T14:40:35.060Z,53.78
2023-03-15T14:43:21.944Z,53.76
2023-03-15T14:46:08.928Z,53.76
2023-03-15T14:48:54.943Z,53.78
2023-03-15T14:51:40.683Z,53.12
2023-03-15T14:54:26.451Z,53.50
2023-03-15T14:57:12.547Z,53.82
2023-03-15T14:59:58.352Z,53.92
2023-03-15T15:02:45.317Z,53.52
2023-03-15T15:05:34.632Z,54.08
2023-03-15T15:08:25.283Z,53.29
2023-03-15T15:11:11.093Z,53.71
2023-03-15T15:13:57.853Z,53.61
2023-03-15T15:16:44.339Z,53.56
2023-03-15T15:19:30.448Z,53.51
2023-03-15T15:22:16.401Z,53.55
2023-03-15T15:25:02.730Z,54.18
2023-03-15T15:27:49.200Z,53.54
2023-03-15T15:30:35.173Z,53.79
2023-03-15T15:33:23.185Z,54.08
2023-03-15T15:36:33.588Z,54.81
2023-03-15T15:39:27.698Z,53.82
2023-03-15T15:42:13.486Z,54.24
2023-03-15T15:44:59.144Z,54.08
2023-03-15T15:47:45.312Z,53.72
2023-03-15T15:50:34.372Z,53.58
2023-03-15T15:53:20.175Z,54.03
2023-03-15T15:56:06.346Z,53.67
2023-03-15T15:58:52.130Z,54.05
2023-03-15T16:01:49.298Z,54.07
2023-03-15T16:04:42.913Z,54.24
2023-03-15T16:07:29.132Z,53.99
2023-03-15T16:10:23.845Z,55.25
2023-03-15T16:13:11.243Z,54.39
2023-03-15T16:15:57.013Z,54.20
2023-03-15T16:18:43.523Z,53.93
2023-03-15T16:21:33.753Z,54.04
2023-03-15T16:24:30.296Z,54.20
2023-03-15T16:27:22.996Z,55.70
2023-03-15T16:30:22.048Z,55.43
2023-03-15T16:33:17.332Z,54.77
2023-03-15T16:36:03.964Z,54.08
2023-03-15T16:38:49.936Z,54.22
2023-03-15T16:41:36.100Z,54.41
2023-03-15T16:44:22.250Z,54.71
2023-03-15T16:47:08.470Z,54.80
2023-03-15T16:49:54.457Z,55.00
2023-03-15T16:52:42.128Z,54.70
2023-03-15T16:55:29.820Z,54.65
2023-03-15T16:58:17.989Z,55.06
2023-03-15T17:01:04.096Z,54.91
2023-03-15T17:03:49.586Z,54.95
2023-03-15T17:06:35.706Z,55.06
2023-03-15T17:09:22.394Z,55.25
2023-03-15T17:12:20.665Z,57.90
2023-03-15T17:15:06.796Z,55.06
2023-03-15T17:17:53.936Z,55.55
2023-03-15T17:20:41.083Z,55.77
2023-03-15T17:23:27.236Z,55.47
2023-03-15T17:26:14.583Z,55.46
2023-03-15T17:29:01.401Z,55.89
2023-03-15T17:31:47.807Z,55.65
2023-03-15T17:34:34.068Z,55.81
2023-03-15T17:37:20.443Z,55.67
2023-03-15T17:40:15.479Z,55.46
2023-03-15T17:43:03.988Z,56.09
2023-03-15T17:45:50.035Z,55.89
2023-03-15T17:48:35.666Z,55.61
2023-03-15T17:51:23.857Z,55.90
2023-03-15T17:54:20.417Z,57.50
2023-03-15T17:57:06.994Z,55.91
2023-03-15T17:59:58.729Z,56.19
2023-03-15T18:02:54.963Z,56.18
2023-03-15T18:05:44.689Z,56.24
2023-03-15T18:08:30.550Z,56.09
2023-03-15T18:11:25.899Z,56.06
2023-03-15T18:14:13.705Z,56.21
2023-03-15T18:16:59.550Z,56.52
2023-03-15T18:19:45.318Z,56.59
2023-03-15T18:22:31.399Z,56.28
2023-03-15T18:25:23.207Z,56.50
2023-03-15T18:28:09.455Z,56.20
2023-03-15T18:30:55.491Z,56.27
2023-03-15T18:33:41.400Z,56.25
2023-03-15T18:36:27.424Z,56.87
2023-03-15T18:39:14.763Z,56.61
2023-03-15T18:42:01.042Z,56.21
2023-03-15T18:44:47.017Z,56.12
2023-03-15T18:47:32.786Z,56.19
2023-03-15T18:50:19.658Z,56.25
2023-03-15T18:53:06.390Z,56.86
2023-03-15T18:55:52.474Z,56.72
2023-03-15T18:58:38.388Z,56.77
2023-03-15T19:01:25.039Z,56.54
2023-03-15T19:04:11.283Z,56.65
2023-03-15T19:06:57.232Z,56.24
2023-03-15T19:09:44.719Z,56.40
2023-03-15T19:12:30.779Z,56.28
2023-03-15T19:15:19.859Z,56.92
2023-03-15T19:18:05.715Z,57.00
2023-03-15T19:20:52.611Z,56.92
2023-03-15T19:23:38.753Z,56.73
2023-03-15T19:26:24.882Z,56.81
2023-03-15T19:29:11.235Z,56.64
2023-03-15T19:31:57.065Z,57.01
2023-03-15T19:34:43.380Z,56.76
2023-03-15T19:37:29.304Z,56.74
2023-03-15T19:40:16.678Z,56.64
2023-03-15T19:43:02.570Z,56.80
2023-03-15T19:45:48.218Z,56.82
2023-03-15T19:48:34.819Z,57.02
2023-03-15T19:51:21.155Z,56.18
2023-03-15T19:54:07.168Z,56.67
2023-03-15T19:56:54.099Z,56.74
2023-03-15T19:59:41.366Z,56.98
2023-03-15T20:02:26.983Z,56.87
2023-03-15T20:05:15.362Z,56.83
2023-03-15T20:08:02.153Z,56.66
2023-03-15T20:10:48.713Z,56.80
2023-03-15T20:13:36.296Z,56.67
2023-03-15T20:16:22.900Z,57.07
2023-03-15T20:19:08.468Z,56.47
2023-03-15T20:21:54.301Z,56.83
2023-03-15T20:24:42.616Z,57.06
2023-03-15T20:27:28.665Z,56.60
2023-03-15T20:30:15.894Z,56.81
2023-03-15T20:33:01.831Z,56.43
2023-03-15T20:35:47.963Z,56.51
2023-03-15T20:38:34.784Z,56.60
2023-03-15T20:41:21.196Z,56.31
2023-03-15T20:44:07.940Z,56.77
2023-03-15T20:46:56.789Z,56.33
2023-03-15T20:49:42.961Z,56.94
2023-03-15T20:52:29.128Z,56.58
2023-03-15T20:55:15.288Z,56.29
2023-03-15T20:58:01.391Z,56.40
2023-03-15T21:00:47.236Z,55.98
2023-03-15T21:03:34.552Z,56.89
2023-03-15T21:06:23.630Z,57.04
2023-03-15T21:09:09.881Z,56.87
2023-03-15T21:11:57.136Z,56.58
2023-03-15T21:14:43.383Z,57.19
2023-03-15T21:17:29.348Z,56.71
2023-03-15T21:20:15.824Z,56.75
2023-03-15T21:23:01.888Z,57.25
2023-03-15T21:25:54.419Z,57.91
2023-03-15T21:28:42.027Z,56.97
2023-03-15T21:31:28.226Z,56.61
2023-03-15T21:34:14.606Z,56.59
2023-03-15T21:37:00.358Z,56.61
2023-03-15T21:39:47.250Z,56.72
2023-03-15T21:42:33.811Z,57.42
2023-03-15T21:45:19.989Z,57.01
2023-03-15T21:48:06.874Z,56.79
2023-03-15T21:51:02.811Z,57.13
2023-03-15T21:53:50.495Z,56.61
2023-03-15T21:56:36.264Z,56.95
2023-03-15T21:59:28.113Z,57.25
2023-03-15T22:02:16.845Z,57.24
2023-03-15T22:05:02.997Z,57.04
2023-03-15T22:07:49.260Z,57.12
2023-03-15T22:10:35.260Z,56.88
2023-03-15T22:13:21.701Z,57.40
2023-03-15T22:16:12.167Z,57.27
2023-03-15T22:18:57.888Z,57.42
2023-03-15T22:21:43.850Z,57.08
2023-03-15T22:24:29.901Z,57.04
2023-03-15T22:27:15.768Z,57.04
2023-03-15T22:30:01.560Z,56.96
2023-03-15T22:32:47.552Z,57.23
2023-03-15T22:35:33.528Z,56.91
2023-03-15T22:38:19.794Z,57.22
2023-03-15T22:41:10.878Z,57.48
2023-03-15T22:43:57.784Z,57.79
2023-03-15T22:46:43.702Z,56.96
2023-03-15T22:49:29.480Z,57.23
2023-03-15T22:52:15.228Z,57.51
2023-03-15T22:55:01.013Z,57.01
2023-03-15T22:57:47.238Z,57.44
2023-03-15T23:00:32.995Z,56.93
2023-03-15T23:03:19.448Z,56.93
2023-03-15T23:06:05.515Z,56.87
2023-03-15T23:08:51.512Z,57.26
2023-03-15T23:11:37.574Z,57.39
2023-03-15T23:14:23.388Z,56.83
2023-03-15T23:17:10.222Z,57.05
2023-03-15T23:19:56.162Z,56.64
2023-03-15T23:22:42.036Z,56.66
2023-03-15T23:25:30.781Z,57.20
2023-03-15T23:28:17.898Z,56.95
2023-03-15T23:31:05.599Z,56.96
2023-03-15T23:33:51.634Z,57.39
2023-03-15T23:36:37.315Z,56.96
2023-03-15T23:39:23.119Z,56.62
2023-03-15T23:42:09.009Z,57.26
2023-03-15T23:44:55.734Z,56.81
2023-03-15T23:47:42.207Z,57.40
2023-03-15T23:50:28.957Z,56.98
2023-03-15T23:53:15.036Z,57.31
2023-03-15T23:56:01.464Z,57.36
2023-03-15T23:58:47.429Z,56.71
